sensor_id;sensor_type;location;lat;lon;timestamp;P1;durP1;ratioP1;P2;durP2;ratioP2
27618;SDS011;15039;50.830;4.730;2022-09-09T00:04:01;2.90;;;1.08;;
27618;SDS011;15039;50.830;4.730;2022-09-09T00:06:43;2.92;;;0.93;;
27618;SDS011;15039;50.830;4.730;2022-09-09T00:09:16;3.90;;;1.27;;
27618;SDS011;15039;50.830;4.730;2022-09-09T00:17:12;6.63;;;1.67;;
27618;SDS011;15039;50.830;4.730;2022-09-09T00:19:47;2.00;;;1.40;;
27618;SDS011;15039;50.830;4.730;2022-09-09T00:22:24;2.85;;;1.17;;
27618;SDS011;15039;50.830;4.730;2022-09-09T00:24:53;3.40;;;1.50;;
27618;SDS011;15039;50.830;4.730;2022-09-09T00:27:29;5.10;;;1.27;;
27618;SDS011;15039;50.830;4.730;2022-09-09T00:32:50;3.25;;;1.02;;
27618;SDS011;15039;50.830;4.730;2022-09-09T00:35:30;3.80;;;1.23;;
27618;SDS011;15039;50.830;4.730;2022-09-09T00:38:03;4.53;;;1.17;;
27618;SDS011;15039;50.830;4.730;2022-09-09T00:48:29;3.33;;;1.07;;
27618;SDS011;15039;50.830;4.730;2022-09-09T00:51:05;2.90;;;1.20;;
27618;SDS011;15039;50.830;4.730;2022-09-09T00:57:34;3.28;;;1.13;;
27618;SDS011;15039;50.830;4.730;2022-09-09T00:59:52;5.93;;;1.40;;
27618;SDS011;15039;50.830;4.730;2022-09-09T01:02:34;4.30;;;1.10;;
27618;SDS011;15039;50.830;4.730;2022-09-09T01:05:16;3.70;;;1.40;;
27618;SDS011;15039;50.830;4.730;2022-09-09T01:08:03;5.18;;;1.17;;
27618;SDS011;15039;50.830;4.730;2022-09-09T01:10:49;3.08;;;1.35;;
27618;SDS011;15039;50.830;4.730;2022-09-09T01:13:31;3.50;;;1.27;;
27618;SDS011;15039;50.830;4.730;2022-09-09T01:16:00;5.22;;;0.93;;
27618;SDS011;15039;50.830;4.730;2022-09-09T01:18:29;3.95;;;1.02;;
27618;SDS011;15039;50.830;4.730;2022-09-09T01:28:57;2.65;;;0.95;;
27618;SDS011;15039;50.830;4.730;2022-09-09T01:31:26;3.55;;;1.60;;
27618;SDS011;15039;50.830;4.730;2022-09-09T01:33:56;5.85;;;1.50;;
27618;SDS011;15039;50.830;4.730;2022-09-09T01:36:26;3.97;;;1.15;;
27618;SDS011;15039;50.830;4.730;2022-09-09T01:39:00;7.17;;;1.80;;
27618;SDS011;15039;50.830;4.730;2022-09-09T01:41:26;3.88;;;1.50;;
27618;SDS011;15039;50.830;4.730;2022-09-09T01:43:52;4.07;;;1.75;;
27618;SDS011;15039;50.830;4.730;2022-09-09T01:46:21;5.22;;;1.58;;
27618;SDS011;15039;50.830;4.730;2022-09-09T01:48:47;4.13;;;1.60;;
27618;SDS011;15039;50.830;4.730;2022-09-09T01:51:15;3.50;;;1.40;;
27618;SDS011;15039;50.830;4.730;2022-09-09T01:53:40;6.80;;;2.13;;
27618;SDS011;15039;50.830;4.730;2022-09-09T01:59:20;7.15;;;2.05;;
27618;SDS011;15039;50.830;4.730;2022-09-09T02:02:08;5.20;;;1.63;;
27618;SDS011;15039;50.830;4.730;2022-09-09T02:04:41;6.07;;;1.52;;
27618;SDS011;15039;50.830;4.730;2022-09-09T02:09:57;6.63;;;1.52;;
27618;SDS011;15039;50.830;4.730;2022-09-09T02:12:32;5.93;;;1.50;;
27618;SDS011;15039;50.830;4.730;2022-09-09T02:15:05;5.82;;;1.60;;
27618;SDS011;15039;50.830;4.730;2022-09-09T02:17:38;5.93;;;1.50;;
27618;SDS011;15039;50.830;4.730;2022-09-09T02:20:08;6.18;;;1.95;;
27618;SDS011;15039;50.830;4.730;2022-09-09T02:22:38;4.15;;;1.48;;
27618;SDS011;15039;50.830;4.730;2022-09-09T02:25:07;7.03;;;1.60;;
27618;SDS011;15039;50.830;4.730;2022-09-09T02:27:34;4.18;;;1.50;;
27618;SDS011;15039;50.830;4.730;2022-09-09T02:30:00;4.72;;;1.20;;
27618;SDS011;15039;50.830;4.730;2022-09-09T02:32:29;6.68;;;1.73;;
27618;SDS011;15039;50.830;4.730;2022-09-09T02:34:59;5.65;;;1.67;;
27618;SDS011;15039;50.830;4.730;2022-09-09T02:37:31;8.45;;;1.63;;
27618;SDS011;15039;50.830;4.730;2022-09-09T02:40:02;2.60;;;1.20;;
27618;SDS011;15039;50.830;4.730;2022-09-09T02:42:29;5.63;;;1.30;;
27618;SDS011;15039;50.830;4.730;2022-09-09T02:44:56;6.13;;;1.48;;
27618;SDS011;15039;50.830;4.730;2022-09-09T02:47:27;4.75;;;1.40;;
27618;SDS011;15039;50.830;4.730;2022-09-09T02:50:11;4.18;;;1.40;;
27618;SDS011;15039;50.830;4.730;2022-09-09T02:55:39;4.90;;;1.50;;
27618;SDS011;15039;50.830;4.730;2022-09-09T02:58:11;6.60;;;1.52;;
27618;SDS011;15039;50.830;4.730;2022-09-09T03:00:42;6.07;;;1.73;;
27618;SDS011;15039;50.830;4.730;2022-09-09T03:03:11;5.22;;;1.42;;
27618;SDS011;15039;50.830;4.730;2022-09-09T03:05:37;6.53;;;1.70;;
27618;SDS011;15039;50.830;4.730;2022-09-09T03:08:03;5.85;;;1.75;;
27618;SDS011;15039;50.830;4.730;2022-09-09T03:10:34;7.05;;;1.60;;
27618;SDS011;15039;50.830;4.730;2022-09-09T03:13:00;9.93;;;2.00;;
27618;SDS011;15039;50.830;4.730;2022-09-09T03:15:26;5.82;;;1.80;;
27618;SDS011;15039;50.830;4.730;2022-09-09T03:17:55;5.55;;;1.40;;
27618;SDS011;15039;50.830;4.730;2022-09-09T03:20:22;7.20;;;1.85;;
27618;SDS011;15039;50.830;4.730;2022-09-09T03:25:17;8.60;;;1.77;;
27618;SDS011;15039;50.830;4.730;2022-09-09T03:27:43;7.32;;;1.60;;
27618;SDS011;15039;50.830;4.730;2022-09-09T03:30:08;7.40;;;1.60;;
27618;SDS011;15039;50.830;4.730;2022-09-09T03:32:34;10.13;;;2.13;;
27618;SDS011;15039;50.830;4.730;2022-09-09T03:35:00;7.78;;;1.70;;
27618;SDS011;15039;50.830;4.730;2022-09-09T03:37:26;4.97;;;1.58;;
27618;SDS011;15039;50.830;4.730;2022-09-09T03:39:51;5.47;;;1.60;;
27618;SDS011;15039;50.830;4.730;2022-09-09T03:42:19;6.18;;;1.30;;
27618;SDS011;15039;50.830;4.730;2022-09-09T03:44:46;6.90;;;1.85;;
27618;SDS011;15039;50.830;4.730;2022-09-09T03:49:41;5.30;;;1.35;;
27618;SDS011;15039;50.830;4.730;2022-09-09T03:52:08;9.23;;;1.52;;
27618;SDS011;15039;50.830;4.730;2022-09-09T03:54:34;8.93;;;1.77;;
27618;SDS011;15039;50.830;4.730;2022-09-09T03:57:00;7.72;;;1.73;;
27618;SDS011;15039;50.830;4.730;2022-09-09T03:59:25;6.53;;;1.60;;
27618;SDS011;15039;50.830;4.730;2022-09-09T04:01:51;7.00;;;1.70;;
27618;SDS011;15039;50.830;4.730;2022-09-09T04:04:17;7.55;;;1.75;;
27618;SDS011;15039;50.830;4.730;2022-09-09T04:06:42;10.30;;;1.95;;
27618;SDS011;15039;50.830;4.730;2022-09-09T04:09:08;6.22;;;1.73;;
27618;SDS011;15039;50.830;4.730;2022-09-09T04:11:33;6.90;;;1.75;;
27618;SDS011;15039;50.830;4.730;2022-09-09T04:13:59;6.50;;;1.70;;
27618;SDS011;15039;50.830;4.730;2022-09-09T04:16:25;3.72;;;1.80;;
27618;SDS011;15039;50.830;4.730;2022-09-09T04:18:50;5.38;;;1.35;;
27618;SDS011;15039;50.830;4.730;2022-09-09T04:21:18;5.35;;;1.80;;
27618;SDS011;15039;50.830;4.730;2022-09-09T04:23:43;5.07;;;1.75;;
27618;SDS011;15039;50.830;4.730;2022-09-09T04:26:09;7.07;;;1.88;;
27618;SDS011;15039;50.830;4.730;2022-09-09T04:28:35;6.30;;;1.67;;
27618;SDS011;15039;50.830;4.730;2022-09-09T04:31:05;7.47;;;1.90;;
27618;SDS011;15039;50.830;4.730;2022-09-09T04:33:32;4.90;;;1.92;;
27618;SDS011;15039;50.830;4.730;2022-09-09T04:35:58;6.60;;;1.90;;
27618;SDS011;15039;50.830;4.730;2022-09-09T04:38:23;7.25;;;1.77;;
27618;SDS011;15039;50.830;4.730;2022-09-09T04:40:51;6.55;;;1.90;;
27618;SDS011;15039;50.830;4.730;2022-09-09T04:43:17;6.05;;;1.92;;
27618;SDS011;15039;50.830;4.730;2022-09-09T04:45:47;7.85;;;2.13;;
27618;SDS011;15039;50.830;4.730;2022-09-09T04:48:14;5.93;;;2.53;;
27618;SDS011;15039;50.830;4.730;2022-09-09T04:50:39;5.55;;;1.77;;
27618;SDS011;15039;50.830;4.730;2022-09-09T04:53:06;6.22;;;2.17;;
27618;SDS011;15039;50.830;4.730;2022-09-09T04:55:32;4.88;;;2.05;;
27618;SDS011;15039;50.830;4.730;2022-09-09T04:58:03;7.50;;;1.58;;
27618;SDS011;15039;50.830;4.730;2022-09-09T05:00:30;4.45;;;2.00;;
27618;SDS011;15039;50.830;4.730;2022-09-09T05:02:56;8.50;;;2.25;;
27618;SDS011;15039;50.830;4.730;2022-09-09T05:05:22;7.05;;;2.53;;
27618;SDS011;15039;50.830;4.730;2022-09-09T05:07:48;9.02;;;2.50;;
27618;SDS011;15039;50.830;4.730;2022-09-09T05:10:14;9.65;;;2.28;;
27618;SDS011;15039;50.830;4.730;2022-09-09T05:12:41;6.72;;;2.13;;
27618;SDS011;15039;50.830;4.730;2022-09-09T05:15:07;6.00;;;2.30;;
27618;SDS011;15039;50.830;4.730;2022-09-09T05:17:34;8.60;;;2.38;;
27618;SDS011;15039;50.830;4.730;2022-09-09T05:20:00;7.53;;;2.05;;
27618;SDS011;15039;50.830;4.730;2022-09-09T05:22:27;7.28;;;2.08;;
27618;SDS011;15039;50.830;4.730;2022-09-09T05:24:53;8.27;;;2.15;;
27618;SDS011;15039;50.830;4.730;2022-09-09T05:27:19;9.95;;;2.33;;
27618;SDS011;15039;50.830;4.730;2022-09-09T05:29:45;8.45;;;1.83;;
27618;SDS011;15039;50.830;4.730;2022-09-09T05:32:11;5.38;;;1.60;;
27618;SDS011;15039;50.830;4.730;2022-09-09T05:34:38;8.35;;;1.88;;
27618;SDS011;15039;50.830;4.730;2022-09-09T05:37:04;6.35;;;2.45;;
27618;SDS011;15039;50.830;4.730;2022-09-09T05:39:30;6.57;;;2.20;;
27618;SDS011;15039;50.830;4.730;2022-09-09T05:41:55;6.63;;;2.22;;
27618;SDS011;15039;50.830;4.730;2022-09-09T05:44:22;8.23;;;2.35;;
27618;SDS011;15039;50.830;4.730;2022-09-09T05:46:50;7.20;;;1.90;;
27618;SDS011;15039;50.830;4.730;2022-09-09T05:49:15;11.30;;;2.30;;
27618;SDS011;15039;50.830;4.730;2022-09-09T05:51:41;4.10;;;1.50;;
27618;SDS011;15039;50.830;4.730;2022-09-09T05:54:08;9.23;;;1.77;;
27618;SDS011;15039;50.830;4.730;2022-09-09T05:56:34;5.68;;;1.55;;
27618;SDS011;15039;50.830;4.730;2022-09-09T05:59:00;7.78;;;1.90;;
27618;SDS011;15039;50.830;4.730;2022-09-09T06:01:30;7.68;;;1.92;;
27618;SDS011;15039;50.830;4.730;2022-09-09T06:03:58;6.15;;;1.42;;
27618;SDS011;15039;50.830;4.730;2022-09-09T06:06:25;5.28;;;1.80;;
27618;SDS011;15039;50.830;4.730;2022-09-09T06:09:01;6.60;;;1.58;;
27618;SDS011;15039;50.830;4.730;2022-09-09T06:11:29;7.32;;;2.78;;
27618;SDS011;15039;50.830;4.730;2022-09-09T06:13:56;8.05;;;1.63;;
27618;SDS011;15039;50.830;4.730;2022-09-09T06:16:29;7.05;;;1.55;;
27618;SDS011;15039;50.830;4.730;2022-09-09T06:18:58;4.95;;;1.40;;
27618;SDS011;15039;50.830;4.730;2022-09-09T06:21:31;5.90;;;1.48;;
27618;SDS011;15039;50.830;4.730;2022-09-09T06:23:59;7.93;;;1.40;;
27618;SDS011;15039;50.830;4.730;2022-09-09T06:26:27;8.25;;;1.50;;
27618;SDS011;15039;50.830;4.730;2022-09-09T06:28:55;9.30;;;1.65;;
27618;SDS011;15039;50.830;4.730;2022-09-09T06:31:23;8.38;;;1.85;;
27618;SDS011;15039;50.830;4.730;2022-09-09T06:33:51;8.10;;;1.80;;
27618;SDS011;15039;50.830;4.730;2022-09-09T06:36:21;4.75;;;1.40;;
27618;SDS011;15039;50.830;4.730;2022-09-09T06:38:48;8.93;;;1.45;;
27618;SDS011;15039;50.830;4.730;2022-09-09T06:41:15;6.55;;;1.90;;
27618;SDS011;15039;50.830;4.730;2022-09-09T06:43:43;6.72;;;2.42;;
27618;SDS011;15039;50.830;4.730;2022-09-09T06:46:13;7.70;;;1.65;;
27618;SDS011;15039;50.830;4.730;2022-09-09T06:48:41;4.93;;;1.73;;
27618;SDS011;15039;50.830;4.730;2022-09-09T06:51:10;7.00;;;1.30;;
27618;SDS011;15039;50.830;4.730;2022-09-09T06:53:36;4.93;;;1.63;;
27618;SDS011;15039;50.830;4.730;2022-09-09T06:58:41;5.18;;;1.65;;
27618;SDS011;15039;50.830;4.730;2022-09-09T07:01:08;9.32;;;1.98;;
27618;SDS011;15039;50.830;4.730;2022-09-09T07:03:34;5.03;;;1.55;;
27618;SDS011;15039;50.830;4.730;2022-09-09T07:06:00;6.97;;;1.45;;
27618;SDS011;15039;50.830;4.730;2022-09-09T07:08:27;6.72;;;1.48;;
27618;SDS011;15039;50.830;4.730;2022-09-09T07:10:53;5.28;;;1.67;;
27618;SDS011;15039;50.830;4.730;2022-09-09T07:13:25;8.50;;;1.73;;
27618;SDS011;15039;50.830;4.730;2022-09-09T07:15:52;4.28;;;1.48;;
27618;SDS011;15039;50.830;4.730;2022-09-09T07:18:20;5.57;;;1.50;;
27618;SDS011;15039;50.830;4.730;2022-09-09T07:20:53;4.85;;;1.52;;
27618;SDS011;15039;50.830;4.730;2022-09-09T07:23:22;4.90;;;1.63;;
27618;SDS011;15039;50.830;4.730;2022-09-09T07:25:49;7.15;;;1.17;;
27618;SDS011;15039;50.830;4.730;2022-09-09T07:28:15;9.38;;;1.98;;
27618;SDS011;15039;50.830;4.730;2022-09-09T07:30:41;8.57;;;1.65;;
27618;SDS011;15039;50.830;4.730;2022-09-09T07:33:08;5.80;;;1.63;;
27618;SDS011;15039;50.830;4.730;2022-09-09T07:35:37;4.78;;;1.30;;
27618;SDS011;15039;50.830;4.730;2022-09-09T07:38:04;3.40;;;1.40;;
27618;SDS011;15039;50.830;4.730;2022-09-09T07:40:32;6.47;;;1.77;;
27618;SDS011;15039;50.830;4.730;2022-09-09T07:42:59;3.70;;;1.58;;
27618;SDS011;15039;50.830;4.730;2022-09-09T07:45:24;4.30;;;1.42;;
27618;SDS011;15039;50.830;4.730;2022-09-09T07:47:53;6.10;;;2.07;;
27618;SDS011;15039;50.830;4.730;2022-09-09T07:50:21;7.80;;;1.52;;
27618;SDS011;15039;50.830;4.730;2022-09-09T07:52:48;6.55;;;1.33;;
27618;SDS011;15039;50.830;4.730;2022-09-09T07:55:14;6.15;;;1.65;;
27618;SDS011;15039;50.830;4.730;2022-09-09T07:57:40;6.40;;;1.48;;
27618;SDS011;15039;50.830;4.730;2022-09-09T08:00:06;11.48;;;1.60;;
27618;SDS011;15039;50.830;4.730;2022-09-09T08:02:32;6.15;;;1.60;;
27618;SDS011;15039;50.830;4.730;2022-09-09T08:04:58;5.07;;;1.70;;
27618;SDS011;15039;50.830;4.730;2022-09-09T08:07:23;5.32;;;1.20;;
27618;SDS011;15039;50.830;4.730;2022-09-09T08:09:49;7.75;;;1.45;;
27618;SDS011;15039;50.830;4.730;2022-09-09T08:12:16;7.15;;;1.70;;
27618;SDS011;15039;50.830;4.730;2022-09-09T08:14:42;2.53;;;1.00;;
27618;SDS011;15039;50.830;4.730;2022-09-09T08:17:08;5.40;;;1.20;;
27618;SDS011;15039;50.830;4.730;2022-09-09T08:19:33;4.93;;;1.02;;
27618;SDS011;15039;50.830;4.730;2022-09-09T08:22:00;4.85;;;1.25;;
27618;SDS011;15039;50.830;4.730;2022-09-09T08:24:28;5.68;;;2.05;;
27618;SDS011;15039;50.830;4.730;2022-09-09T08:26:54;5.43;;;1.30;;
27618;SDS011;15039;50.830;4.730;2022-09-09T08:29:21;2.65;;;1.10;;
27618;SDS011;15039;50.830;4.730;2022-09-09T08:31:55;5.32;;;1.38;;
27618;SDS011;15039;50.830;4.730;2022-09-09T08:34:22;4.97;;;1.27;;
27618;SDS011;15039;50.830;4.730;2022-09-09T08:36:49;4.03;;;1.15;;
27618;SDS011;15039;50.830;4.730;2022-09-09T08:39:17;6.50;;;1.55;;
27618;SDS011;15039;50.830;4.730;2022-09-09T08:42:04;4.20;;;1.20;;
27618;SDS011;15039;50.830;4.730;2022-09-09T08:44:47;4.60;;;1.20;;
27618;SDS011;15039;50.830;4.730;2022-09-09T08:50:29;2.88;;;1.10;;
27618;SDS011;15039;50.830;4.730;2022-09-09T08:55:46;3.58;;;1.20;;
27618;SDS011;15039;50.830;4.730;2022-09-09T08:58:23;5.63;;;1.58;;
27618;SDS011;15039;50.830;4.730;2022-09-09T09:11:57;6.63;;;2.13;;
27618;SDS011;15039;50.830;4.730;2022-09-09T09:14:26;6.35;;;1.85;;
27618;SDS011;15039;50.830;4.730;2022-09-09T09:19:28;5.70;;;1.35;;
27618;SDS011;15039;50.830;4.730;2022-09-09T09:30:42;3.63;;;1.50;;
27618;SDS011;15039;50.830;4.730;2022-09-09T09:33:19;5.82;;;1.70;;
27618;SDS011;15039;50.830;4.730;2022-09-09T09:35:49;5.75;;;1.65;;
27618;SDS011;15039;50.830;4.730;2022-09-09T09:40:57;5.50;;;1.75;;
27618;SDS011;15039;50.830;4.730;2022-09-09T09:43:24;7.78;;;2.38;;
27618;SDS011;15039;50.830;4.730;2022-09-09T09:48:20;7.88;;;1.60;;
27618;SDS011;15039;50.830;4.730;2022-09-09T09:50:56;5.10;;;1.40;;
27618;SDS011;15039;50.830;4.730;2022-09-09T09:53:32;4.25;;;1.75;;
27618;SDS011;15039;50.830;4.730;2022-09-09T09:56:02;5.35;;;1.25;;
27618;SDS011;15039;50.830;4.730;2022-09-09T09:59:18;7.45;;;1.90;;
27618;SDS011;15039;50.830;4.730;2022-09-09T10:01:31;6.13;;;2.15;;
27618;SDS011;15039;50.830;4.730;2022-09-09T10:06:45;5.70;;;1.65;;
27618;SDS011;15039;50.830;4.730;2022-09-09T10:09:25;6.47;;;1.85;;
27618;SDS011;15039;50.830;4.730;2022-09-09T10:23:33;5.95;;;2.08;;
27618;SDS011;15039;50.830;4.730;2022-09-09T10:26:36;4.93;;;1.70;;
27618;SDS011;15039;50.830;4.730;2022-09-09T10:40:34;5.47;;;1.85;;
27618;SDS011;15039;50.830;4.730;2022-09-09T10:47:20;4.63;;;1.67;;
27618;SDS011;15039;50.830;4.730;2022-09-09T10:52:24;6.90;;;2.40;;
27618;SDS011;15039;50.830;4.730;2022-09-09T10:55:03;6.57;;;1.92;;
27618;SDS011;15039;50.830;4.730;2022-09-09T10:57:48;7.97;;;1.85;;
27618;SDS011;15039;50.830;4.730;2022-09-09T11:02:59;4.20;;;1.15;;
27618;SDS011;15039;50.830;4.730;2022-09-09T11:08:28;5.22;;;1.80;;
27618;SDS011;15039;50.830;4.730;2022-09-09T11:11:06;3.63;;;1.50;;
27618;SDS011;15039;50.830;4.730;2022-09-09T11:18:50;5.90;;;1.55;;
27618;SDS011;15039;50.830;4.730;2022-09-09T11:21:32;4.53;;;1.50;;
27618;SDS011;15039;50.830;4.730;2022-09-09T11:24:04;3.63;;;1.38;;
27618;SDS011;15039;50.830;4.730;2022-09-09T11:26:39;5.75;;;1.70;;
27618;SDS011;15039;50.830;4.730;2022-09-09T11:29:21;3.03;;;1.10;;
27618;SDS011;15039;50.830;4.730;2022-09-09T11:37:53;3.20;;;1.23;;
27618;SDS011;15039;50.830;4.730;2022-09-09T11:40:46;5.78;;;1.23;;
27618;SDS011;15039;50.830;4.730;2022-09-09T11:43:21;7.18;;;1.80;;
27618;SDS011;15039;50.830;4.730;2022-09-09T11:46:05;3.53;;;1.20;;
27618;SDS011;15039;50.830;4.730;2022-09-09T11:48:42;5.60;;;1.20;;
27618;SDS011;15039;50.830;4.730;2022-09-09T11:56:30;4.28;;;1.30;;
27618;SDS011;15039;50.830;4.730;2022-09-09T12:01:55;2.42;;;1.02;;
27618;SDS011;15039;50.830;4.730;2022-09-09T12:09:20;5.45;;;1.30;;
27618;SDS011;15039;50.830;4.730;2022-09-09T12:14:39;3.58;;;1.27;;
27618;SDS011;15039;50.830;4.730;2022-09-09T12:17:22;5.65;;;1.38;;
27618;SDS011;15039;50.830;4.730;2022-09-09T12:28:19;4.30;;;1.15;;
27618;SDS011;15039;50.830;4.730;2022-09-09T12:31:09;4.60;;;1.27;;
27618;SDS011;15039;50.830;4.730;2022-09-09T12:33:43;6.22;;;1.25;;
27618;SDS011;15039;50.830;4.730;2022-09-09T12:36:13;2.25;;;0.93;;
27618;SDS011;15039;50.830;4.730;2022-09-09T12:38:42;2.75;;;1.05;;
27618;SDS011;15039;50.830;4.730;2022-09-09T12:41:21;6.00;;;1.27;;
27618;SDS011;15039;50.830;4.730;2022-09-09T12:44:03;2.50;;;1.02;;
27618;SDS011;15039;50.830;4.730;2022-09-09T12:46:33;3.33;;;1.10;;
27618;SDS011;15039;50.830;4.730;2022-09-09T12:49:03;4.82;;;1.00;;
27618;SDS011;15039;50.830;4.730;2022-09-09T12:51:32;4.28;;;1.40;;
27618;SDS011;15039;50.830;4.730;2022-09-09T12:53:59;1.45;;;0.77;;
27618;SDS011;15039;50.830;4.730;2022-09-09T12:56:26;3.00;;;0.85;;
27618;SDS011;15039;50.830;4.730;2022-09-09T12:58:55;4.50;;;1.42;;
27618;SDS011;15039;50.830;4.730;2022-09-09T13:01:30;3.30;;;1.00;;
27618;SDS011;15039;50.830;4.730;2022-09-09T13:03:58;2.60;;;0.93;;
27618;SDS011;15039;50.830;4.730;2022-09-09T13:06:25;3.63;;;1.30;;
27618;SDS011;15039;50.830;4.730;2022-09-09T13:08:52;3.47;;;1.00;;
27618;SDS011;15039;50.830;4.730;2022-09-09T13:11:38;3.97;;;1.10;;
27618;SDS011;15039;50.830;4.730;2022-09-09T13:14:12;5.88;;;1.25;;
27618;SDS011;15039;50.830;4.730;2022-09-09T13:16:58;4.03;;;1.23;;
27618;SDS011;15039;50.830;4.730;2022-09-09T13:19:25;3.35;;;1.05;;
27618;SDS011;15039;50.830;4.730;2022-09-09T13:21:53;2.63;;;0.88;;
27618;SDS011;15039;50.830;4.730;2022-09-09T13:24:27;3.90;;;1.13;;
27618;SDS011;15039;50.830;4.730;2022-09-09T13:27:50;1.98;;;0.88;;
27618;SDS011;15039;50.830;4.730;2022-09-09T13:29:52;2.83;;;0.80;;
27618;SDS011;15039;50.830;4.730;2022-09-09T13:32:23;1.27;;;0.90;;
27618;SDS011;15039;50.830;4.730;2022-09-09T13:37:29;2.00;;;0.68;;
27618;SDS011;15039;50.830;4.730;2022-09-09T13:39:58;5.57;;;1.02;;
27618;SDS011;15039;50.830;4.730;2022-09-09T13:42:29;1.30;;;0.70;;
27618;SDS011;15039;50.830;4.730;2022-09-09T13:44:56;2.10;;;0.85;;
27618;SDS011;15039;50.830;4.730;2022-09-09T13:47:34;2.10;;;0.90;;
27618;SDS011;15039;50.830;4.730;2022-09-09T13:52:46;2.40;;;0.68;;
27618;SDS011;15039;50.830;4.730;2022-09-09T13:55:12;2.60;;;1.00;;
27618;SDS011;15039;50.830;4.730;2022-09-09T13:57:38;2.67;;;0.80;;
27618;SDS011;15039;50.830;4.730;2022-09-09T14:00:04;1.15;;;0.70;;
27618;SDS011;15039;50.830;4.730;2022-09-09T14:02:32;3.03;;;0.90;;
27618;SDS011;15039;50.830;4.730;2022-09-09T14:04:58;4.10;;;0.88;;
27618;SDS011;15039;50.830;4.730;2022-09-09T14:07:24;2.83;;;0.70;;
27618;SDS011;15039;50.830;4.730;2022-09-09T14:09:50;1.52;;;0.60;;
27618;SDS011;15039;50.830;4.730;2022-09-09T14:12:16;2.00;;;0.73;;
27618;SDS011;15039;50.830;4.730;2022-09-09T14:14:43;1.60;;;0.60;;
27618;SDS011;15039;50.830;4.730;2022-09-09T14:17:09;2.28;;;0.90;;
27618;SDS011;15039;50.830;4.730;2022-09-09T14:19:34;4.40;;;0.80;;
27618;SDS011;15039;50.830;4.730;2022-09-09T14:22:02;1.58;;;0.70;;
27618;SDS011;15039;50.830;4.730;2022-09-09T14:24:28;1.35;;;0.75;;
27618;SDS011;15039;50.830;4.730;2022-09-09T14:26:53;1.20;;;0.80;;
27618;SDS011;15039;50.830;4.730;2022-09-09T14:29:19;3.53;;;0.90;;
27618;SDS011;15039;50.830;4.730;2022-09-09T14:31:45;4.22;;;0.70;;
27618;SDS011;15039;50.830;4.730;2022-09-09T14:34:11;2.67;;;0.93;;
27618;SDS011;15039;50.830;4.730;2022-09-09T14:36:39;1.83;;;0.80;;
27618;SDS011;15039;50.830;4.730;2022-09-09T14:39:06;3.72;;;1.02;;
27618;SDS011;15039;50.830;4.730;2022-09-09T14:41:32;2.88;;;0.90;;
27618;SDS011;15039;50.830;4.730;2022-09-09T14:43:58;2.45;;;1.00;;
27618;SDS011;15039;50.830;4.730;2022-09-09T14:46:24;3.28;;;1.08;;
27618;SDS011;15039;50.830;4.730;2022-09-09T14:48:51;3.33;;;0.80;;
27618;SDS011;15039;50.830;4.730;2022-09-09T14:51:21;4.47;;;1.30;;
27618;SDS011;15039;50.830;4.730;2022-09-09T14:53:50;3.67;;;1.00;;
27618;SDS011;15039;50.830;4.730;2022-09-09T14:56:18;4.60;;;1.10;;
27618;SDS011;15039;50.830;4.730;2022-09-09T14:58:47;3.38;;;0.80;;
27618;SDS011;15039;50.830;4.730;2022-09-09T15:01:16;2.40;;;0.88;;
27618;SDS011;15039;50.830;4.730;2022-09-09T15:03:48;3.00;;;0.65;;
27618;SDS011;15039;50.830;4.730;2022-09-09T15:06:16;4.53;;;1.02;;
27618;SDS011;15039;50.830;4.730;2022-09-09T15:08:42;1.67;;;0.90;;
27618;SDS011;15039;50.830;4.730;2022-09-09T15:11:10;3.90;;;1.10;;
27618;SDS011;15039;50.830;4.730;2022-09-09T15:13:38;6.68;;;0.70;;
27618;SDS011;15039;50.830;4.730;2022-09-09T15:16:05;0.70;;;0.60;;
27618;SDS011;15039;50.830;4.730;2022-09-09T15:18:33;2.53;;;1.08;;
27618;SDS011;15039;50.830;4.730;2022-09-09T15:21:01;3.83;;;1.00;;
27618;SDS011;15039;50.830;4.730;2022-09-09T15:23:31;2.50;;;0.75;;
27618;SDS011;15039;50.830;4.730;2022-09-09T15:25:57;2.38;;;0.60;;
27618;SDS011;15039;50.830;4.730;2022-09-09T15:28:23;2.65;;;1.00;;
27618;SDS011;15039;50.830;4.730;2022-09-09T15:30:49;2.90;;;1.10;;
27618;SDS011;15039;50.830;4.730;2022-09-09T15:33:17;3.28;;;1.02;;
27618;SDS011;15039;50.830;4.730;2022-09-09T15:35:43;2.38;;;0.90;;
27618;SDS011;15039;50.830;4.730;2022-09-09T15:38:09;2.80;;;0.70;;
27618;SDS011;15039;50.830;4.730;2022-09-09T15:40:35;3.83;;;0.80;;
27618;SDS011;15039;50.830;4.730;2022-09-09T15:43:00;3.42;;;0.82;;
27618;SDS011;15039;50.830;4.730;2022-09-09T15:45:28;4.38;;;1.42;;
27618;SDS011;15039;50.830;4.730;2022-09-09T15:50:24;2.58;;;0.70;;
27618;SDS011;15039;50.830;4.730;2022-09-09T15:52:49;5.63;;;1.00;;
27618;SDS011;15039;50.830;4.730;2022-09-09T15:55:17;2.03;;;0.80;;
27618;SDS011;15039;50.830;4.730;2022-09-09T15:57:42;4.47;;;1.10;;
27618;SDS011;15039;50.830;4.730;2022-09-09T16:00:08;3.45;;;1.02;;
27618;SDS011;15039;50.830;4.730;2022-09-09T16:02:37;2.55;;;1.02;;
27618;SDS011;15039;50.830;4.730;2022-09-09T16:05:03;3.50;;;0.88;;
27618;SDS011;15039;50.830;4.730;2022-09-09T16:07:29;5.25;;;1.00;;
27618;SDS011;15039;50.830;4.730;2022-09-09T16:09:55;2.25;;;0.63;;
27618;SDS011;15039;50.830;4.730;2022-09-09T16:12:21;3.13;;;0.70;;
27618;SDS011;15039;50.830;4.730;2022-09-09T16:14:46;1.58;;;0.77;;
27618;SDS011;15039;50.830;4.730;2022-09-09T16:17:12;2.55;;;0.90;;
27618;SDS011;15039;50.830;4.730;2022-09-09T16:19:39;2.45;;;0.80;;
27618;SDS011;15039;50.830;4.730;2022-09-09T16:22:05;3.25;;;0.90;;
27618;SDS011;15039;50.830;4.730;2022-09-09T16:24:32;2.17;;;0.60;;
27618;SDS011;15039;50.830;4.730;2022-09-09T16:26:58;2.90;;;0.80;;
27618;SDS011;15039;50.830;4.730;2022-09-09T16:29:24;2.67;;;1.00;;
27618;SDS011;15039;50.830;4.730;2022-09-09T16:31:52;3.10;;;1.00;;
27618;SDS011;15039;50.830;4.730;2022-09-09T16:34:18;4.35;;;1.20;;
27618;SDS011;15039;50.830;4.730;2022-09-09T16:36:45;2.05;;;0.75;;
27618;SDS011;15039;50.830;4.730;2022-09-09T16:39:19;3.35;;;0.82;;
27618;SDS011;15039;50.830;4.730;2022-09-09T16:41:46;1.67;;;0.75;;
27618;SDS011;15039;50.830;4.730;2022-09-09T16:44:13;2.90;;;0.88;;
27618;SDS011;15039;50.830;4.730;2022-09-09T16:46:42;2.58;;;1.08;;
27618;SDS011;15039;50.830;4.730;2022-09-09T16:49:10;3.60;;;1.33;;
27618;SDS011;15039;50.830;4.730;2022-09-09T16:51:47;2.13;;;0.88;;
27618;SDS011;15039;50.830;4.730;2022-09-09T16:54:16;2.17;;;0.65;;
27618;SDS011;15039;50.830;4.730;2022-09-09T16:56:44;3.13;;;1.00;;
27618;SDS011;15039;50.830;4.730;2022-09-09T16:59:15;3.40;;;1.00;;
27618;SDS011;15039;50.830;4.730;2022-09-09T17:01:59;3.25;;;1.35;;
27618;SDS011;15039;50.830;4.730;2022-09-09T17:04:29;2.13;;;0.77;;
27618;SDS011;15039;50.830;4.730;2022-09-09T17:06:57;4.47;;;1.00;;
27618;SDS011;15039;50.830;4.730;2022-09-09T17:09:25;2.63;;;0.90;;
27618;SDS011;15039;50.830;4.730;2022-09-09T17:12:10;2.40;;;0.93;;
27618;SDS011;15039;50.830;4.730;2022-09-09T17:14:37;2.20;;;0.80;;
27618;SDS011;15039;50.830;4.730;2022-09-09T17:17:10;1.35;;;1.00;;
27618;SDS011;15039;50.830;4.730;2022-09-09T17:19:36;2.08;;;0.90;;
27618;SDS011;15039;50.830;4.730;2022-09-09T17:22:16;2.95;;;0.90;;
27618;SDS011;15039;50.830;4.730;2022-09-09T17:24:42;2.28;;;0.98;;
27618;SDS011;15039;50.830;4.730;2022-09-09T17:27:14;1.98;;;0.77;;
27618;SDS011;15039;50.830;4.730;2022-09-09T17:29:44;1.92;;;1.10;;
27618;SDS011;15039;50.830;4.730;2022-09-09T17:32:11;3.00;;;0.98;;
27618;SDS011;15039;50.830;4.730;2022-09-09T17:34:37;3.97;;;1.50;;
27618;SDS011;15039;50.830;4.730;2022-09-09T17:37:03;3.83;;;1.00;;
27618;SDS011;15039;50.830;4.730;2022-09-09T17:39:32;4.68;;;1.08;;
27618;SDS011;15039;50.830;4.730;2022-09-09T17:41:58;3.58;;;1.10;;
27618;SDS011;15039;50.830;4.730;2022-09-09T17:44:25;2.60;;;1.20;;